sensor_id;sensor_type;location;lat;lon;timestamp;pressure;altitude;pressure_sealevel;temperature;humidity
34921;BME280;21128;50.016;20.002;2023-02-13T00:00:35;100874.38;;;1.58;100.00
34921;BME280;21128;50.016;20.002;2023-02-13T00:03:22;100879.61;;;1.56;100.00
34921;BME280;21128;50.016;20.002;2023-02-13T00:05:49;100887.42;;;1.55;100.00
34921;BME280;21128;50.016;20.002;2023-02-13T00:08:16;100885.72;;;1.54;100.00
34921;BME280;21128;50.016;20.002;2023-02-13T00:10:43;100874.55;;;1.52;100.00
34921;BME280;21128;50.016;20.002;2023-02-13T00:13:11;100874.55;;;1.52;100.00
34921;BME280;21128;50.016;20.002;2023-02-13T00:15:38;100865.94;;;1.50;100.00
34921;BME280;21128;50.016;20.002;2023-02-13T00:18:05;100871.16;;;1.48;100.00
34921;BME280;21128;50.016;20.002;2023-02-13T00:20:32;100866.02;;;1.47;100.00
34921;BME280;21128;50.016;20.002;2023-02-13T00:23:00;100857.40;;;1.46;100.00
34921;BME280;21128;50.016;20.002;2023-02-13T00:25:27;100856.47;;;1.49;100.00
34921;BME280;21128;50.016;20.002;2023-02-13T00:27:54;100856.41;;;1.52;100.00
34921;BME280;21128;50.016;20.002;2023-02-13T00:30:21;100854.63;;;1.54;100.00
34921;BME280;21128;50.016;20.002;2023-02-13T00:32:48;100867.59;;;1.54;100.00
34921;BME280;21128;50.016;20.002;2023-02-13T00:35:16;100866.73;;;1.53;100.00
34921;BME280;21128;50.016;20.002;2023-02-13T00:37:43;100867.59;;;1.54;100.00
34921;BME280;21128;50.016;20.002;2023-02-13T00:40:11;100864.15;;;1.53;100.00
34921;BME280;21128;50.016;20.002;2023-02-13T00:42:38;100861.59;;;1.52;100.00
34921;BME280;21128;50.016;20.002;2023-02-13T00:45:05;100853.78;;;1.53;100.00
34921;BME280;21128;50.016;20.002;2023-02-13T00:47:32;100852.89;;;1.54;100.00
34921;BME280;21128;50.016;20.002;2023-02-13T00:50:00;100852.94;;;1.51;100.00
34921;BME280;21128;50.016;20.002;2023-02-13T00:52:27;100857.27;;;1.51;100.00
34921;BME280;21128;50.016;20.002;2023-02-13T00:54:54;100852.94;;;1.51;100.00
34921;BME280;21128;50.016;20.002;2023-02-13T00:57:21;100851.23;;;1.52;100.00
34921;BME280;21128;50.016;20.002;2023-02-13T00:59:48;100840.87;;;1.52;100.00
34921;BME280;21128;50.016;20.002;2023-02-13T01:02:16;100840.78;;;1.55;100.00
34921;BME280;21128;50.016;20.002;2023-02-13T01:04:43;100837.22;;;1.59;100.00
34921;BME280;21128;50.016;20.002;2023-02-13T01:07:10;100838.02;;;1.62;100.00
34921;BME280;21128;50.016;20.002;2023-02-13T01:09:37;100819.79;;;1.65;100.00
34921;BME280;21128;50.016;20.002;2023-02-13T01:12:05;100819.75;;;1.67;100.00
34921;BME280;21128;50.016;20.002;2023-02-13T01:14:32;100818.84;;;1.68;100.00
34921;BME280;21128;50.016;20.002;2023-02-13T01:16:59;100813.66;;;1.69;100.00
34921;BME280;21128;50.016;20.002;2023-02-13T01:19:27;100809.33;;;1.70;100.00
34921;BME280;21128;50.016;20.002;2023-02-13T01:21:54;100804.14;;;1.70;100.00
34921;BME280;21128;50.016;20.002;2023-02-13T01:24:21;100807.63;;;1.69;100.00
34921;BME280;21128;50.016;20.002;2023-02-13T01:26:48;100807.63;;;1.69;100.00
34921;BME280;21128;50.016;20.002;2023-02-13T01:29:15;100808.48;;;1.68;100.00
34921;BME280;21128;50.016;20.002;2023-02-13T01:31:42;100811.08;;;1.68;100.00
34921;BME280;21128;50.016;20.002;2023-02-13T01:34:17;100805.03;;;1.69;100.00
34921;BME280;21128;50.016;20.002;2023-02-13T01:36:59;100799.84;;;1.69;100.00
34921;BME280;21128;50.016;20.002;2023-02-13T01:39:27;100796.36;;;1.70;100.00
34921;BME280;21128;50.016;20.002;2023-02-13T01:41:54;100796.36;;;1.70;100.00
34921;BME280;21128;50.016;20.002;2023-02-13T01:44:50;100798.95;;;1.70;100.00
34921;BME280;21128;50.016;20.002;2023-02-13T01:50:04;100796.42;;;1.67;100.00
34921;BME280;21128;50.016;20.002;2023-02-13T01:52:33;100785.34;;;1.62;100.00
34921;BME280;21128;50.016;20.002;2023-02-13T01:55:03;100782.75;;;1.62;100.00
34921;BME280;21128;50.016;20.002;2023-02-13T01:57:32;100785.34;;;1.62;100.00
34921;BME280;21128;50.016;20.002;2023-02-13T02:00:09;100780.16;;;1.62;100.00
34921;BME280;21128;50.016;20.002;2023-02-13T02:02:40;100779.34;;;1.60;100.00
34921;BME280;21128;50.016;20.002;2023-02-13T02:05:11;100766.45;;;1.57;100.00
34921;BME280;21128;50.016;20.002;2023-02-13T02:07:40;100765.60;;;1.56;100.00
34921;BME280;21128;50.016;20.002;2023-02-13T02:10:11;100766.45;;;1.57;100.00
34921;BME280;21128;50.016;20.002;2023-02-13T02:13:02;100768.19;;;1.56;100.00
34921;BME280;21128;50.016;20.002;2023-02-13T02:15:30;100757.78;;;1.58;100.00
34921;BME280;21128;50.016;20.002;2023-02-13T02:17:58;100757.73;;;1.59;100.00
34921;BME280;21128;50.016;20.002;2023-02-13T02:29:30;100765.50;;;1.61;100.00
34921;BME280;21128;50.016;20.002;2023-02-13T02:37:50;100769.70;;;1.65;100.00
34921;BME280;21128;50.016;20.002;2023-02-13T02:40:51;100778.28;;;1.67;100.00
34921;BME280;21128;50.016;20.002;2023-02-13T02:44:03;100773.09;;;1.67;100.00
34921;BME280;21128;50.016;20.002;2023-02-13T02:46:45;100767.06;;;1.66;100.00
34921;BME280;21128;50.016;20.002;2023-02-13T02:49:40;100768.00;;;1.64;100.00
34921;BME280;21128;50.016;20.002;2023-02-13T02:55:36;100771.48;;;1.63;100.00
34921;BME280;21128;50.016;20.002;2023-02-13T02:58:59;100766.30;;;1.63;100.00
34921;BME280;21128;50.016;20.002;2023-02-13T03:01:37;100770.55;;;1.65;100.00
34921;BME280;21128;50.016;20.002;2023-02-13T03:04:30;100776.58;;;1.66;100.00
34921;BME280;21128;50.016;20.002;2023-02-13T03:07:18;100773.09;;;1.67;100.00
34921;BME280;21128;50.016;20.002;2023-02-13T03:10:26;100776.58;;;1.66;100.00
34921;BME280;21128;50.016;20.002;2023-02-13T03:13:04;100773.09;;;1.67;100.00
34921;BME280;21128;50.016;20.002;2023-02-13T03:15:52;100766.16;;;1.69;100.00
34921;BME280;21128;50.016;20.002;2023-02-13T03:18:51;100764.38;;;1.71;100.00
34921;BME280;21128;50.016;20.002;2023-02-13T03:27:30;100758.14;;;1.78;100.00
34921;BME280;21128;50.016;20.002;2023-02-13T03:30:45;100764.93;;;1.82;100.00
34921;BME280;21128;50.016;20.002;2023-02-13T03:36:36;100772.56;;;1.88;100.00
34921;BME280;21128;50.016;20.002;2023-02-13T03:40:16;100779.53;;;1.86;100.00
34921;BME280;21128;50.016;20.002;2023-02-13T03:42:40;100776.16;;;1.83;100.00
34921;BME280;21128;50.016;20.002;2023-02-13T03:45:20;100780.44;;;1.84;100.00
34921;BME280;21128;50.016;20.002;2023-02-13T03:48:08;100776.20;;;1.81;100.00
34921;BME280;21128;50.016;20.002;2023-02-13T03:50:57;100777.89;;;1.82;100.00
34921;BME280;21128;50.016;20.002;2023-02-13T03:53:28;100783.93;;;1.83;100.00
34921;BME280;21128;50.016;20.002;2023-02-13T03:55:57;100783.93;;;1.83;100.00
34921;BME280;21128;50.016;20.002;2023-02-13T03:58:48;100781.38;;;1.81;100.00
34921;BME280;21128;50.016;20.002;2023-02-13T04:01:37;100780.63;;;1.76;100.00
34921;BME280;21128;50.016;20.002;2023-02-13T04:04:12;100781.53;;;1.75;100.00
34921;BME280;21128;50.016;20.002;2023-02-13T04:07:04;100785.95;;;1.72;100.00
34921;BME280;21128;50.016;20.002;2023-02-13T04:09:35;100786.89;;;1.69;100.00
34921;BME280;21128;50.016;20.002;2023-02-13T04:12:17;100784.30;;;1.69;100.00
34921;BME280;21128;50.016;20.002;2023-02-13T04:14:51;100780.86;;;1.68;100.00
34921;BME280;21128;50.016;20.002;2023-02-13T04:17:25;100784.31;;;1.67;100.00
34921;BME280;21128;50.016;20.002;2023-02-13T04:19:56;100774.88;;;1.65;100.00
34921;BME280;21128;50.016;20.002;2023-02-13T04:22:23;100776.67;;;1.63;100.00
34921;BME280;21128;50.016;20.002;2023-02-13T04:24:50;100771.59;;;1.58;100.00
34921;BME280;21128;50.016;20.002;2023-02-13T04:27:17;100770.88;;;1.53;100.00
34921;BME280;21128;50.016;20.002;2023-02-13T04:29:44;100778.69;;;1.52;100.00
34921;BME280;21128;50.016;20.002;2023-02-13T04:32:11;100777.89;;;1.48;100.00
34921;BME280;21128;50.016;20.002;2023-02-13T04:34:40;100776.23;;;1.46;100.00
34921;BME280;21128;50.016;20.002;2023-02-13T04:37:07;100775.44;;;1.44;100.00
34921;BME280;21128;50.016;20.002;2023-02-13T04:39:34;100779.77;;;1.43;100.00
34921;BME280;21128;50.016;20.002;2023-02-13T04:42:01;100772.05;;;1.40;100.00
34921;BME280;21128;50.016;20.002;2023-02-13T04:44:29;100768.69;;;1.36;100.00
34921;BME280;21128;50.016;20.002;2023-02-13T04:46:56;100772.17;;;1.35;100.00
34921;BME280;21128;50.016;20.002;2023-02-13T04:49:23;100767.84;;;1.36;100.00
34921;BME280;21128;50.016;20.002;2023-02-13T04:51:50;100777.36;;;1.35;100.00
34921;BME280;21128;50.016;20.002;2023-02-13T04:54:17;100785.94;;;1.37;100.00
34921;BME280;21128;50.016;20.002;2023-02-13T04:56:44;100784.23;;;1.36;100.00
34921;BME280;21128;50.016;20.002;2023-02-13T04:59:12;100771.28;;;1.36;100.00
34921;BME280;21128;50.016;20.002;2023-02-13T05:01:39;100785.09;;;1.37;100.00
34921;BME280;21128;50.016;20.002;2023-02-13T05:04:06;100779.91;;;1.37;100.00
34921;BME280;21128;50.016;20.002;2023-02-13T05:06:33;100796.20;;;1.40;100.00
34921;BME280;21128;50.016;20.002;2023-02-13T05:09:00;100777.19;;;1.41;100.00
34921;BME280;21128;50.016;20.002;2023-02-13T05:11:27;100778.02;;;1.44;100.00
34921;BME280;21128;50.016;20.002;2023-02-13T05:13:54;100781.38;;;1.47;100.00
34921;BME280;21128;50.016;20.002;2023-02-13T05:16:21;100784.77;;;1.49;100.00
34921;BME280;21128;50.016;20.002;2023-02-13T05:18:48;100784.67;;;1.54;100.00
34921;BME280;21128;50.016;20.002;2023-02-13T05:21:20;100776.81;;;1.57;100.00
34921;BME280;21128;50.016;20.002;2023-02-13T05:24:07;100778.45;;;1.61;100.00
34921;BME280;21128;50.016;20.002;2023-02-13T05:26:34;100784.45;;;1.63;100.00
34921;BME280;21128;50.016;20.002;2023-02-13T05:29:01;100782.61;;;1.66;100.00
34921;BME280;21128;50.016;20.002;2023-02-13T05:31:52;100789.48;;;1.69;100.00
34921;BME280;21128;50.016;20.002;2023-02-13T05:34:22;100778.22;;;1.70;100.00
34921;BME280;21128;50.016;20.002;2023-02-13T05:36:52;100769.55;;;1.71;100.00
34921;BME280;21128;50.016;20.002;2023-02-13T05:39:20;100776.44;;;1.72;100.00
34921;BME280;21128;50.016;20.002;2023-02-13T05:41:49;100772.10;;;1.73;100.00
34921;BME280;21128;50.016;20.002;2023-02-13T05:44:17;100777.28;;;1.73;100.00
34921;BME280;21128;50.016;20.002;2023-02-13T05:46:44;100785.91;;;1.73;100.00
34921;BME280;21128;50.016;20.002;2023-02-13T05:49:13;100780.72;;;1.73;100.00
34921;BME280;21128;50.016;20.002;2023-02-13T05:51:41;100793.69;;;1.73;100.00
34921;BME280;21128;50.016;20.002;2023-02-13T05:54:09;100797.13;;;1.74;100.00
34921;BME280;21128;50.016;20.002;2023-02-13T05:56:36;100810.88;;;1.77;100.00
34921;BME280;21128;50.016;20.002;2023-02-13T05:59:03;100805.69;;;1.77;100.00
34921;BME280;21128;50.016;20.002;2023-02-13T06:01:30;100805.69;;;1.77;100.00
34921;BME280;21128;50.016;20.002;2023-02-13T06:03:57;100800.47;;;1.79;100.00
34921;BME280;21128;50.016;20.002;2023-02-13T06:06:24;100802.16;;;1.80;100.00
34921;BME280;21128;50.016;20.002;2023-02-13T06:08:52;100797.78;;;1.82;100.00
34921;BME280;21128;50.016;20.002;2023-02-13T06:11:19;100790.86;;;1.82;100.00
34921;BME280;21128;50.016;20.002;2023-02-13T06:13:46;100797.73;;;1.83;100.00
34921;BME280;21128;50.016;20.002;2023-02-13T06:16:13;100795.14;;;1.83;100.00
34921;BME280;21128;50.016;20.002;2023-02-13T06:18:40;100792.55;;;1.83;100.00
34921;BME280;21128;50.016;20.002;2023-02-13T06:21:08;100789.96;;;1.83;100.00
34921;BME280;21128;50.016;20.002;2023-02-13T06:23:35;100796.84;;;1.84;100.00
34921;BME280;21128;50.016;20.002;2023-02-13T06:26:06;100798.53;;;1.87;100.00
34921;BME280;21128;50.016;20.002;2023-02-13T06:28:34;100793.30;;;1.88;100.00
34921;BME280;21128;50.016;20.002;2023-02-13T06:31:01;100795.84;;;1.90;100.00
34921;BME280;21128;50.016;20.002;2023-02-13T06:33:28;100806.17;;;1.91;100.00
34921;BME280;21128;50.016;20.002;2023-02-13T06:35:55;100802.69;;;1.92;100.00
34921;BME280;21128;50.016;20.002;2023-02-13T06:38:22;100807.86;;;1.94;100.00
34921;BME280;21128;50.016;20.002;2023-02-13T06:40:50;100801.77;;;1.95;100.00
34921;BME280;21128;50.016;20.002;2023-02-13T06:43:17;100816.39;;;1.97;100.00
34921;BME280;21128;50.016;20.002;2023-02-13T06:45:44;100820.64;;;2.00;100.00
34921;BME280;21128;50.016;20.002;2023-02-13T06:48:13;100828.36;;;2.03;100.00
34921;BME280;21128;50.016;20.002;2023-02-13T06:50:40;100821.38;;;2.05;100.00
34921;BME280;21128;50.016;20.002;2023-02-13T06:53:07;100822.14;;;2.09;100.00
34921;BME280;21128;50.016;20.002;2023-02-13T06:55:35;100824.67;;;2.12;100.00
34921;BME280;21128;50.016;20.002;2023-02-13T06:58:02;100827.17;;;2.15;100.00
34921;BME280;21128;50.016;20.002;2023-02-13T07:00:29;100826.23;;;2.17;100.00
34921;BME280;21128;50.016;20.002;2023-02-13T07:03:01;100827.06;;;2.19;100.00
34921;BME280;21128;50.016;20.002;2023-02-13T07:05:29;100827.02;;;2.21;100.00
34921;BME280;21128;50.016;20.002;2023-02-13T07:07:56;100826.92;;;2.24;100.00
34921;BME280;21128;50.016;20.002;2023-02-13T07:10:23;100823.39;;;2.26;100.00
34921;BME280;21128;50.016;20.002;2023-02-13T07:12:50;100823.33;;;2.30;100.00
34921;BME280;21128;50.016;20.002;2023-02-13T07:15:17;100826.67;;;2.33;100.00
34921;BME280;21128;50.016;20.002;2023-02-13T07:17:44;100831.80;;;2.36;100.00
34921;BME280;21128;50.016;20.002;2023-02-13T07:20:11;100821.42;;;2.36;100.00
34921;BME280;21128;50.016;20.002;2023-02-13T07:22:39;100824.77;;;2.40;100.00
34921;BME280;21128;50.016;20.002;2023-02-13T07:25:06;100822.93;;;2.43;100.00
34921;BME280;21128;50.016;20.002;2023-02-13T07:27:33;100823.76;;;2.45;100.00
34921;BME280;21128;50.016;20.002;2023-02-13T07:30:00;100821.07;;;2.48;100.00
34921;BME280;21128;50.016;20.002;2023-02-13T07:32:27;100827.01;;;2.52;100.00
34921;BME280;21128;50.016;20.002;2023-02-13T07:34:54;100821.87;;;2.50;100.00
34921;BME280;21128;50.016;20.002;2023-02-13T07:37:21;100810.58;;;2.53;100.00
34921;BME280;21128;50.016;20.002;2023-02-13T07:39:48;100813.97;;;2.55;100.00
34921;BME280;21128;50.016;20.002;2023-02-13T07:42:15;100810.52;;;2.54;100.00
34921;BME280;21128;50.016;20.002;2023-02-13T07:44:42;100812.17;;;2.57;100.00
34921;BME280;21128;50.016;20.002;2023-02-13T07:47:10;100804.34;;;2.59;100.00
34921;BME280;21128;50.016;20.002;2023-02-13T07:49:37;100811.21;;;2.61;100.00
34921;BME280;21128;50.016;20.002;2023-02-13T07:52:04;100808.56;;;2.63;100.00
34921;BME280;21128;50.016;20.002;2023-02-13T07:54:32;100815.30;;;2.68;100.00
34921;BME280;21128;50.016;20.002;2023-02-13T07:56:59;100813.48;;;2.72;100.00
34921;BME280;21128;50.016;20.002;2023-02-13T07:59:26;100809.14;;;2.72;100.00
34921;BME280;21128;50.016;20.002;2023-02-13T08:01:53;100815.98;;;2.75;100.00
34921;BME280;21128;50.016;20.002;2023-02-13T08:04:20;100808.12;;;2.78;100.00
34921;BME280;21128;50.016;20.002;2023-02-13T08:06:47;100806.23;;;2.83;100.00
34921;BME280;21128;50.016;20.002;2023-02-13T08:09:19;100803.45;;;2.89;100.00
34921;BME280;21128;50.016;20.002;2023-02-13T08:12:07;100805.88;;;2.95;100.00
34921;BME280;21128;50.016;20.002;2023-02-13T08:14:34;100799.58;;;3.02;100.00
34921;BME280;21128;50.016;20.002;2023-02-13T08:17:01;100799.55;;;3.04;100.00
34921;BME280;21128;50.016;20.002;2023-02-13T08:19:29;100810.80;;;3.04;100.00
34921;BME280;21128;50.016;20.002;2023-02-13T08:21:56;100808.99;;;3.06;100.00
34921;BME280;21128;50.016;20.002;2023-02-13T08:24:24;100802.79;;;3.10;100.00
34921;BME280;21128;50.016;20.002;2023-02-13T08:26:51;100809.50;;;3.18;100.00
34921;BME280;21128;50.016;20.002;2023-02-13T08:29:18;100807.75;;;3.18;100.00
34921;BME280;21128;50.016;20.002;2023-02-13T08:31:45;100799.03;;;3.21;100.00
34921;BME280;21128;50.016;20.002;2023-02-13T08:34:12;100800.68;;;3.23;100.00
34921;BME280;21128;50.016;20.002;2023-02-13T08:36:39;100798.82;;;3.27;100.00
34921;BME280;21128;50.016;20.002;2023-02-13T08:39:08;100801.42;;;3.27;100.00
34921;BME280;21128;50.016;20.002;2023-02-13T08:41:35;100799.65;;;3.29;100.00
34921;BME280;21128;50.016;20.002;2023-02-13T08:44:03;100800.39;;;3.32;100.00
34921;BME280;21128;50.016;20.002;2023-02-13T08:46:30;100798.45;;;3.39;100.00
34921;BME280;21128;50.016;20.002;2023-02-13T08:48:57;100788.61;;;3.49;100.00
34921;BME280;21128;50.016;20.002;2023-02-13T08:51:24;100800.34;;;3.60;100.00
34921;BME280;21128;50.016;20.002;2023-02-13T08:53:51;100802.63;;;3.70;100.00
34921;BME280;21128;50.016;20.002;2023-02-13T08:56:18;100784.30;;;3.74;100.00
34921;BME280;21128;50.016;20.002;2023-02-13T08:58:48;100780.65;;;3.80;100.00
34921;BME280;21128;50.016;20.002;2023-02-13T09:01:16;100779.55;;;3.87;100.00
34921;BME280;21128;50.016;20.002;2023-02-13T09:03:43;100787.90;;;3.95;100.00
34921;BME280;21128;50.016;20.002;2023-02-13T09:06:10;100788.61;;;4.00;100.00
34921;BME280;21128;50.016;20.002;2023-02-13T09:08:37;100779.84;;;4.03;100.00
34921;BME280;21128;50.016;20.002;2023-02-13T09:11:04;100777.88;;;4.09;100.00
34921;BME280;21128;50.016;20.002;2023-02-13T09:13:33;100784.56;;;4.16;100.00
34921;BME280;21128;50.016;20.002;2023-02-13T09:16:04;100780.97;;;4.20;100.00
34921;BME280;21128;50.016;20.002;2023-02-13T09:18:33;100775.44;;;4.30;100.00
34921;BME280;21128;50.016;20.002;2023-02-13T09:21:03;100774.97;;;4.42;100.00
34921;BME280;21128;50.016;20.002;2023-02-13T09:23:36;100786.74;;;4.52;100.00
34921;BME280;21128;50.016;20.002;2023-02-13T09:26:05;100787.38;;;4.59;100.00
34921;BME280;21128;50.016;20.002;2023-02-13T09:28:34;100778.44;;;4.66;100.00
34921;BME280;21128;50.016;20.002;2023-02-13T09:31:09;100784.27;;;4.72;100.00
34921;BME280;21128;50.016;20.002;2023-02-13T09:33:37;100778.93;;;4.75;100.00
34921;BME280;21128;50.016;20.002;2023-02-13T09:36:06;100778.77;;;4.80;100.00
34921;BME280;21128;50.016;20.002;2023-02-13T09:38:34;100782.32;;;4.77;100.00
34921;BME280;21128;50.016;20.002;2023-02-13T09:41:04;100777.51;;;4.90;100.00
34921;BME280;21128;50.016;20.002;2023-02-13T09:43:47;100778.68;;;5.05;100.00
34921;BME280;21128;50.016;20.002;2023-02-13T09:46:28;100771.14;;;5.19;100.00
34921;BME280;21128;50.016;20.002;2023-02-13T09:49:02;100774.42;;;5.24;100.00
34921;BME280;21128;50.016;20.002;2023-02-13T09:51:31;100773.38;;;5.28;100.00
34921;BME280;21128;50.016;20.002;2023-02-13T09:54:01;100776.46;;;5.38;100.00
34921;BME280;21128;50.016;20.002;2023-02-13T10:07:28;100774.05;;;5.76;100.00
34921;BME280;21128;50.016;20.002;2023-02-13T10:18:11;100757.02;;;6.28;100.00
34921;BME280;21128;50.016;20.002;2023-02-13T10:20:53;100749.66;;;6.57;100.00
34921;BME280;21128;50.016;20.002;2023-02-13T10:23:40;100745.47;;;6.71;100.00
34921;BME280;21128;50.016;20.002;2023-02-13T10:28:54;100730.38;;;6.40;100.00
34921;BME280;21128;50.016;20.002;2023-02-13T10:31:45;100740.84;;;6.20;100.00
34921;BME280;21128;50.016;20.002;2023-02-13T10:34:15;100747.39;;;6.10;100.00
34921;BME280;21128;50.016;20.002;2023-02-13T10:36:45;100737.43;;;5.99;100.00
34921;BME280;21128;50.016;20.002;2023-02-13T10:39:27;100728.83;;;5.97;100.00
34921;BME280;21128;50.016;20.002;2023-02-13T10:45:02;100716.48;;;6.01;100.00
34921;BME280;21128;50.016;20.002;2023-02-13T11:01:56;100700.41;;;6.10;100.00
34921;BME280;21128;50.016;20.002;2023-02-13T11:04:28;100705.78;;;6.07;100.00
34921;BME280;21128;50.016;20.002;2023-02-13T11:07:00;100707.32;;;6.11;100.00
34921;BME280;21128;50.016;20.002;2023-02-13T11:09:30;100704.98;;;6.05;100.00
34921;BME280;21128;50.016;20.002;2023-02-13T11:14:58;100689.73;;;5.96;100.00
34921;BME280;21128;50.016;20.002;2023-02-13T11:17:28;100688.81;;;5.97;100.00
34921;BME280;21128;50.016;20.002;2023-02-13T11:19:57;100698.36;;;5.98;100.00
34921;BME280;21128;50.016;20.002;2023-02-13T11:24:58;100691.09;;;5.84;100.00
34921;BME280;21128;50.016;20.002;2023-02-13T11:27:32;100703.44;;;5.80;100.00
34921;BME280;21128;50.016;20.002;2023-02-13T11:30:06;100695.61;;;5.80;100.00
34921;BME280;21128;50.016;20.002;2023-02-13T11:32:34;100697.34;;;5.80;100.00
34921;BME280;21128;50.016;20.002;2023-02-13T11:35:27;100703.62;;;5.76;100.00
34921;BME280;21128;50.016;20.002;2023-02-13T11:40:45;100705.12;;;5.61;100.00
34921;BME280;21128;50.016;20.002;2023-02-13T11:43:33;100697.44;;;5.58;100.00
34921;BME280;21128;50.016;20.002;2023-02-13T11:46:23;100698.46;;;5.54;100.00
34921;BME280;21128;50.016;20.002;2023-02-13T11:49:03;100699.52;;;5.50;100.00
34921;BME280;21128;50.016;20.002;2023-02-13T11:51:44;100698.78;;;5.46;100.00
34921;BME280;21128;50.016;20.002;2023-02-13T11:54:33;100699.70;;;5.45;100.00
34921;BME280;21128;50.016;20.002;2023-02-13T11:59:51;100694.69;;;5.41;100.00
34921;BME280;21128;50.016;20.002;2023-02-13T12:04:48;100693.95;;;5.37;100.00
34921;BME280;21128;50.016;20.002;2023-02-13T12:07:22;100696.62;;;5.35;100.00
34921;BME280;21128;50.016;20.002;2023-02-13T12:13:01;100693.25;;;5.33;100.00
34921;BME280;21128;50.016;20.002;2023-02-13T12:15:34;100682.05;;;5.31;100.00
34921;BME280;21128;50.016;20.002;2023-02-13T12:20:47;100667.18;;;5.33;100.00
34921;BME280;21128;50.016;20.002;2023-02-13T12:26:30;100672.14;;;5.40;100.00
34921;BME280;21128;50.016;20.002;2023-02-13T12:29:01;100673.84;;;5.41;100.00
34921;BME280;21128;50.016;20.002;2023-02-13T12:40:14;100663.66;;;5.34;100.00
34921;BME280;21128;50.016;20.002;2023-02-13T12:45:48;100650.16;;;5.45;100.00
34921;BME280;21128;50.016;20.002;2023-02-13T12:48:28;100645.39;;;5.55;100.00
34921;BME280;21128;50.016;20.002;2023-02-13T12:59:30;100663.02;;;5.50;100.00
34921;BME280;21128;50.016;20.002;2023-02-13T13:02:17;100659.48;;;5.51;100.00
34921;BME280;21128;50.016;20.002;2023-02-13T13:05:05;100654.20;;;5.52;100.00
34921;BME280;21128;50.016;20.002;2023-02-13T13:08:10;100656.81;;;5.52;100.00
34921;BME280;21128;50.016;20.002;2023-02-13T13:21:31;100650.23;;;5.44;100.00
34921;BME280;21128;50.016;20.002;2023-02-13T13:24:21;100651.08;;;5.44;100.00
34921;BME280;21128;50.016;20.002;2023-02-13T13:26:51;100648.61;;;5.41;100.00
34921;BME280;21128;50.016;20.002;2023-02-13T13:29:54;100654.74;;;5.40;100.00
34921;BME280;21128;50.016;20.002;2023-02-13T13:32:31;100652.13;;;5.40;100.00
34921;BME280;21128;50.016;20.002;2023-02-13T13:35:01;100646.98;;;5.39;100.00
34921;BME280;21128;50.016;20.002;2023-02-13T13:37:43;100650.55;;;5.36;100.00
34921;BME280;21128;50.016;20.002;2023-02-13T13:40:52;100649.70;;;5.35;100.00
34921;BME280;21128;50.016;20.002;2023-02-13T13:46:02;100657.45;;;5.37;100.00
34921;BME280;21128;50.016;20.002;2023-02-13T13:51:32;100654.81;;;5.39;100.00
34921;BME280;21128;50.016;20.002;2023-02-13T13:56:47;100638.69;;;5.29;100.00
34921;BME280;21128;50.016;20.002;2023-02-13T13:59:53;100639.59;;;5.28;100.00
34921;BME280;21128;50.016;20.002;2023-02-13T14:07:41;100638.13;;;5.22;100.00
34921;BME280;21128;50.016;20.002;2023-02-13T14:10:58;100631.25;;;5.20;100.00
34921;BME280;21128;50.016;20.002;2023-02-13T14:13:33;100638.23;;;5.19;100.00
34921;BME280;21128;50.016;20.002;2023-02-13T14:16:03;100632.31;;;5.16;100.00
34921;BME280;21128;50.016;20.002;2023-02-13T14:18:31;100627.95;;;5.16;100.00
34921;BME280;21128;50.016;20.002;2023-02-13T14:21:00;100629.63;;;5.17;100.00
34921;BME280;21128;50.016;20.002;2023-02-13T14:23:45;100622.59;;;5.19;100.00
34921;BME280;21128;50.016;20.002;2023-02-13T14:26:27;100607.09;;;5.16;100.00
34921;BME280;21128;50.016;20.002;2023-02-13T14:29:01;100615.05;;;5.13;100.00
34921;BME280;21128;50.016;20.002;2023-02-13T14:31:41;100609.88;;;5.12;100.00
34921;BME280;21128;50.016;20.002;2023-02-13T14:36:46;100600.45;;;5.09;100.00
34921;BME280;21128;50.016;20.002;2023-02-13T14:39:32;100601.43;;;5.06;100.00
34921;BME280;21128;50.016;20.002;2023-02-13T14:42:26;100592.84;;;5.04;100.00
34921;BME280;21128;50.016;20.002;2023-02-13T14:44:58;100585.13;;;5.01;100.00
34921;BME280;21128;50.016;20.002;2023-02-13T14:47:39;100576.47;;;5.01;100.00
34921;BME280;21128;50.016;20.002;2023-02-13T14:52:48;100568.05;;;4.94;100.00
34921;BME280;21128;50.016;20.002;2023-02-13T14:55:32;100584.60;;;4.93;100.00
34921;BME280;21128;50.016;20.002;2023-02-13T14:58:07;100580.38;;;4.91;100.00
34921;BME280;21128;50.016;20.002;2023-02-13T15:01:04;100574.25;;;4.92;100.00
34921;BME280;21128;50.016;20.002;2023-02-13T15:03:37;100574.08;;;4.96;100.00
34921;BME280;21128;50.016;20.002;2023-02-13T15:06:31;100561.89;;;4.97;100.00
34921;BME280;21128;50.016;20.002;2023-02-13T15:09:03;100568.86;;;4.96;100.00
34921;BME280;21128;50.016;20.002;2023-02-13T15:11:35;100555.87;;;4.95;100.00
34921;BME280;21128;50.016;20.002;2023-02-13T15:16:44;100552.36;;;4.96;100.00
34921;BME280;21128;50.016;20.002;2023-02-13T15:19:17;100542.81;;;4.96;100.00
34921;BME280;21128;50.016;20.002;2023-02-13T15:21:53;100549.71;;;4.97;100.00
34921;BME280;21128;50.016;20.002;2023-02-13T15:24:21;100552.17;;;5.00;100.00
34921;BME280;21128;50.016;20.002;2023-02-13T15:27:13;100554.85;;;4.99;100.00
34921;BME280;21128;50.016;20.002;2023-02-13T15:30:02;100560.17;;;4.96;100.00
34921;BME280;21128;50.016;20.002;2023-02-13T15:32:33;100562.08;;;4.92;100.00
34921;BME280;21128;50.016;20.002;2023-02-13T15:35:26;100558.69;;;4.90;100.00